sensor_id;sensor_type;location;lat;lon;timestamp;pressure;altitude;pressure_sealevel;temperature;humidity
29467;BME280;60968;37.490;-122.288;2023-06-14T00:02:14;98686.91;;;18.54;74.28
29467;BME280;60968;37.490;-122.288;2023-06-14T00:05:15;98692.63;;;18.28;75.53
29467;BME280;60968;37.490;-122.288;2023-06-14T00:08:15;98698.88;;;18.08;76.79
29467;BME280;60968;37.490;-122.288;2023-06-14T00:11:16;98691.22;;;17.84;78.90
29467;BME280;60968;37.490;-122.288;2023-06-14T00:14:17;98694.16;;;17.78;79.89
29467;BME280;60968;37.490;-122.288;2023-06-14T00:17:18;98684.19;;;17.85;79.58
29467;BME280;60968;37.490;-122.288;2023-06-14T00:20:19;98684.84;;;18.08;78.17
29467;BME280;60968;37.490;-122.288;2023-06-14T00:23:20;98681.97;;;18.12;78.33
29467;BME280;60968;37.490;-122.288;2023-06-14T00:26:21;98679.72;;;18.05;78.33
29467;BME280;60968;37.490;-122.288;2023-06-14T00:29:23;98673.38;;;18.09;77.89
29467;BME280;60968;37.490;-122.288;2023-06-14T00:32:28;98673.97;;;18.14;78.07
29467;BME280;60968;37.490;-122.288;2023-06-14T00:35:29;98671.25;;;18.15;77.68
29467;BME280;60968;37.490;-122.288;2023-06-14T00:38:30;98660.97;;;18.11;78.39
29467;BME280;60968;37.490;-122.288;2023-06-14T00:41:33;98657.53;;;18.44;77.79
29467;BME280;60968;37.490;-122.288;2023-06-14T00:44:35;98653.34;;;18.40;76.54
29467;BME280;60968;37.490;-122.288;2023-06-14T00:47:38;98654.72;;;18.47;77.07
29467;BME280;60968;37.490;-122.288;2023-06-14T00:50:39;98649.53;;;18.45;77.11
29467;BME280;60968;37.490;-122.288;2023-06-14T00:53:41;98649.66;;;18.60;77.10
29467;BME280;60968;37.490;-122.288;2023-06-14T00:56:44;98642.88;;;18.38;77.30
29467;BME280;60968;37.490;-122.288;2023-06-14T00:59:47;98640.25;;;18.21;78.51
29467;BME280;60968;37.490;-122.288;2023-06-14T01:02:48;98634.13;;;18.03;79.96
29467;BME280;60968;37.490;-122.288;2023-06-14T01:06:18;98632.88;;;18.10;80.68
29467;BME280;60968;37.490;-122.288;2023-06-14T01:09:22;98634.38;;;17.98;80.20
29467;BME280;60968;37.490;-122.288;2023-06-14T01:12:44;98635.47;;;17.75;81.86
29467;BME280;60968;37.490;-122.288;2023-06-14T01:15:50;98630.13;;;17.59;83.33
29467;BME280;60968;37.490;-122.288;2023-06-14T01:18:52;98630.91;;;17.61;83.80
29467;BME280;60968;37.490;-122.288;2023-06-14T01:21:55;98622.69;;;17.67;83.44
29467;BME280;60968;37.490;-122.288;2023-06-14T01:24:57;98627.13;;;17.66;83.98
29467;BME280;60968;37.490;-122.288;2023-06-14T01:28:06;98629.84;;;17.65;84.49
29467;BME280;60968;37.490;-122.288;2023-06-14T01:31:08;98625.81;;;17.75;84.77
29467;BME280;60968;37.490;-122.288;2023-06-14T01:34:10;98626.03;;;17.88;84.15
29467;BME280;60968;37.490;-122.288;2023-06-14T01:37:12;98636.22;;;17.59;85.33
29467;BME280;60968;37.490;-122.288;2023-06-14T01:40:18;98636.59;;;17.34;85.82
29467;BME280;60968;37.490;-122.288;2023-06-14T01:43:21;98636.91;;;17.09;87.44
29467;BME280;60968;37.490;-122.288;2023-06-14T01:46:23;98639.97;;;16.79;89.05
29467;BME280;60968;37.490;-122.288;2023-06-14T01:49:24;98643.63;;;16.76;89.06
29467;BME280;60968;37.490;-122.288;2023-06-14T01:52:26;98657.25;;;16.85;88.94
29467;BME280;60968;37.490;-122.288;2023-06-14T01:55:28;98649.25;;;16.27;92.89
29467;BME280;60968;37.490;-122.288;2023-06-14T01:58:29;98656.63;;;16.19;94.56
29467;BME280;60968;37.490;-122.288;2023-06-14T02:01:31;98654.13;;;16.16;94.93
29467;BME280;60968;37.490;-122.288;2023-06-14T02:04:32;98651.81;;;16.08;95.74
29467;BME280;60968;37.490;-122.288;2023-06-14T02:07:33;98654.75;;;16.21;95.40
29467;BME280;60968;37.490;-122.288;2023-06-14T02:10:34;98659.84;;;16.26;95.08
29467;BME280;60968;37.490;-122.288;2023-06-14T02:13:35;98668.69;;;16.03;95.88
29467;BME280;60968;37.490;-122.288;2023-06-14T02:16:37;98678.25;;;15.83;97.77
29467;BME280;60968;37.490;-122.288;2023-06-14T02:19:39;98674.13;;;15.54;100.00
29467;BME280;60968;37.490;-122.288;2023-06-14T02:22:41;98660.59;;;15.65;99.74
29467;BME280;60968;37.490;-122.288;2023-06-14T02:25:42;98657.59;;;15.74;98.76
29467;BME280;60968;37.490;-122.288;2023-06-14T02:28:44;98663.22;;;15.65;99.01
29467;BME280;60968;37.490;-122.288;2023-06-14T02:31:46;98674.59;;;15.43;100.00
29467;BME280;60968;37.490;-122.288;2023-06-14T02:34:48;98677.06;;;15.24;100.00
29467;BME280;60968;37.490;-122.288;2023-06-14T02:37:50;98690.88;;;15.05;100.00
29467;BME280;60968;37.490;-122.288;2023-06-14T02:40:51;98675.31;;;14.77;100.00
29467;BME280;60968;37.490;-122.288;2023-06-14T02:43:53;98695.91;;;14.12;100.00
29467;BME280;60968;37.490;-122.288;2023-06-14T02:46:54;98693.78;;;13.97;100.00
29467;BME280;60968;37.490;-122.288;2023-06-14T02:49:56;98701.16;;;13.85;100.00
29467;BME280;60968;37.490;-122.288;2023-06-14T02:53:00;98707.63;;;13.73;100.00
29467;BME280;60968;37.490;-122.288;2023-06-14T02:56:02;98699.56;;;13.51;100.00
29467;BME280;60968;37.490;-122.288;2023-06-14T02:59:07;98699.09;;;13.67;100.00
29467;BME280;60968;37.490;-122.288;2023-06-14T03:02:14;98706.22;;;13.33;100.00
29467;BME280;60968;37.490;-122.288;2023-06-14T03:05:16;98698.44;;;13.30;100.00
29467;BME280;60968;37.490;-122.288;2023-06-14T03:08:23;98706.47;;;13.24;100.00
29467;BME280;60968;37.490;-122.288;2023-06-14T03:11:26;98715.56;;;13.42;100.00
29467;BME280;60968;37.490;-122.288;2023-06-14T03:14:28;98713.09;;;13.37;100.00
29467;BME280;60968;37.490;-122.288;2023-06-14T03:17:30;98704.50;;;13.32;100.00
29467;BME280;60968;37.490;-122.288;2023-06-14T03:20:31;98707.69;;;13.44;100.00
29467;BME280;60968;37.490;-122.288;2023-06-14T03:23:32;98707.44;;;13.51;100.00
29467;BME280;60968;37.490;-122.288;2023-06-14T03:26:36;98709.97;;;13.54;100.00
29467;BME280;60968;37.490;-122.288;2023-06-14T03:29:39;98719.25;;;13.65;100.00
29467;BME280;60968;37.490;-122.288;2023-06-14T03:32:41;98710.22;;;13.73;100.00
29467;BME280;60968;37.490;-122.288;2023-06-14T03:35:43;98709.50;;;13.70;100.00
29467;BME280;60968;37.490;-122.288;2023-06-14T03:38:45;98698.28;;;13.65;100.00
29467;BME280;60968;37.490;-122.288;2023-06-14T03:41:47;98693.97;;;13.64;100.00
29467;BME280;60968;37.490;-122.288;2023-06-14T03:44:50;98701.53;;;13.73;100.00
29467;BME280;60968;37.490;-122.288;2023-06-14T03:47:51;98689.19;;;13.77;100.00
29467;BME280;60968;37.490;-122.288;2023-06-14T03:50:54;98684.94;;;13.74;100.00
29467;BME280;60968;37.490;-122.288;2023-06-14T03:53:55;98705.56;;;13.83;100.00
29467;BME280;60968;37.490;-122.288;2023-06-14T03:56:56;98714.03;;;13.92;100.00
29467;BME280;60968;37.490;-122.288;2023-06-14T03:59:58;98729.69;;;14.20;100.00
29467;BME280;60968;37.490;-122.288;2023-06-14T04:02:59;98736.44;;;14.27;100.00
29467;BME280;60968;37.490;-122.288;2023-06-14T04:06:00;98726.69;;;14.05;100.00
29467;BME280;60968;37.490;-122.288;2023-06-14T04:09:03;98727.56;;;14.04;100.00
29467;BME280;60968;37.490;-122.288;2023-06-14T04:12:06;98716.19;;;14.05;100.00
29467;BME280;60968;37.490;-122.288;2023-06-14T04:15:08;98723.78;;;14.13;100.00
29467;BME280;60968;37.490;-122.288;2023-06-14T04:18:12;98731.25;;;14.26;100.00
29467;BME280;60968;37.490;-122.288;2023-06-14T04:21:13;98719.59;;;14.34;100.00
29467;BME280;60968;37.490;-122.288;2023-06-14T04:24:14;98726.38;;;14.40;100.00
29467;BME280;60968;37.490;-122.288;2023-06-14T04:27:17;98729.66;;;14.47;100.00
29467;BME280;60968;37.490;-122.288;2023-06-14T04:30:19;98727.84;;;14.49;100.00
29467;BME280;60968;37.490;-122.288;2023-06-14T04:33:22;98726.97;;;14.48;100.00
29467;BME280;60968;37.490;-122.288;2023-06-14T04:36:26;98739.41;;;14.43;100.00
29467;BME280;60968;37.490;-122.288;2023-06-14T04:39:27;98738.47;;;14.44;100.00
29467;BME280;60968;37.490;-122.288;2023-06-14T04:42:28;98737.22;;;14.56;100.00
29467;BME280;60968;37.490;-122.288;2023-06-14T04:45:31;98744.91;;;14.61;100.00
29467;BME280;60968;37.490;-122.288;2023-06-14T04:48:32;98754.91;;;14.49;100.00
29467;BME280;60968;37.490;-122.288;2023-06-14T04:51:33;98746.16;;;14.50;100.00
29467;BME280;60968;37.490;-122.288;2023-06-14T04:54:34;98741.88;;;14.48;100.00
29467;BME280;60968;37.490;-122.288;2023-06-14T04:57:35;98759.63;;;14.39;100.00
29467;BME280;60968;37.490;-122.288;2023-06-14T05:00:37;98764.19;;;14.33;100.00
29467;BME280;60968;37.490;-122.288;2023-06-14T05:03:38;98760.28;;;14.19;100.00
29467;BME280;60968;37.490;-122.288;2023-06-14T05:06:40;98760.56;;;14.10;100.00
29467;BME280;60968;37.490;-122.288;2023-06-14T05:09:41;98764.75;;;13.61;100.00
29467;BME280;60968;37.490;-122.288;2023-06-14T05:12:42;98751.06;;;13.51;100.00
29467;BME280;60968;37.490;-122.288;2023-06-14T05:15:44;98748.06;;;13.35;100.00
29467;BME280;60968;37.490;-122.288;2023-06-14T05:18:45;98756.75;;;13.35;100.00
29467;BME280;60968;37.490;-122.288;2023-06-14T05:21:47;98745.59;;;13.29;100.00
29467;BME280;60968;37.490;-122.288;2023-06-14T05:24:49;98734.69;;;13.14;100.00
29467;BME280;60968;37.490;-122.288;2023-06-14T05:27:50;98738.22;;;13.12;100.00
29467;BME280;60968;37.490;-122.288;2023-06-14T05:30:51;98743.06;;;12.96;100.00
29467;BME280;60968;37.490;-122.288;2023-06-14T05:33:53;98753.84;;;12.83;100.00
29467;BME280;60968;37.490;-122.288;2023-06-14T05:36:56;98747.97;;;12.75;100.00
29467;BME280;60968;37.490;-122.288;2023-06-14T05:39:57;98741.41;;;12.92;100.00
29467;BME280;60968;37.490;-122.288;2023-06-14T05:42:58;98735.34;;;12.91;100.00
29467;BME280;60968;37.490;-122.288;2023-06-14T05:45:59;98724.84;;;12.93;100.00
29467;BME280;60968;37.490;-122.288;2023-06-14T05:49:00;98720.44;;;12.93;100.00
29467;BME280;60968;37.490;-122.288;2023-06-14T05:52:01;98715.19;;;12.95;100.00
29467;BME280;60968;37.490;-122.288;2023-06-14T05:55:04;98722.09;;;12.97;100.00
29467;BME280;60968;37.490;-122.288;2023-06-14T05:58:05;98716.72;;;13.02;100.00
29467;BME280;60968;37.490;-122.288;2023-06-14T06:01:06;98715.91;;;13.00;100.00
29467;BME280;60968;37.490;-122.288;2023-06-14T06:04:08;98713.47;;;12.94;100.00
29467;BME280;60968;37.490;-122.288;2023-06-14T06:07:10;98724.59;;;13.00;100.00
29467;BME280;60968;37.490;-122.288;2023-06-14T06:10:11;98725.47;;;13.01;100.00
29467;BME280;60968;37.490;-122.288;2023-06-14T06:13:12;98716.94;;;12.94;100.00
29467;BME280;60968;37.490;-122.288;2023-06-14T06:16:15;98722.03;;;12.99;100.00
29467;BME280;60968;37.490;-122.288;2023-06-14T06:19:16;98709.09;;;13.24;100.00
29467;BME280;60968;37.490;-122.288;2023-06-14T06:22:17;98694.03;;;13.32;100.00
29467;BME280;60968;37.490;-122.288;2023-06-14T06:25:19;98697.31;;;13.41;100.00
29467;BME280;60968;37.490;-122.288;2023-06-14T06:28:20;98704.13;;;13.46;100.00
29467;BME280;60968;37.490;-122.288;2023-06-14T06:31:21;98710.19;;;13.47;100.00
29467;BME280;60968;37.490;-122.288;2023-06-14T06:34:26;98700.09;;;13.63;100.00
29467;BME280;60968;37.490;-122.288;2023-06-14T06:37:28;98692.66;;;13.50;100.00
29467;BME280;60968;37.490;-122.288;2023-06-14T06:40:31;98686.22;;;13.61;100.00
29467;BME280;60968;37.490;-122.288;2023-06-14T06:43:32;98677.56;;;13.59;100.00
29467;BME280;60968;37.490;-122.288;2023-06-14T06:46:35;98674.06;;;13.58;100.00
29467;BME280;60968;37.490;-122.288;2023-06-14T06:49:36;98694.06;;;13.61;100.00
29467;BME280;60968;37.490;-122.288;2023-06-14T06:52:38;98678.16;;;13.67;100.00
29467;BME280;60968;37.490;-122.288;2023-06-14T06:55:40;98670.44;;;13.62;100.00
29467;BME280;60968;37.490;-122.288;2023-06-14T06:58:42;98674.16;;;13.55;100.00
29467;BME280;60968;37.490;-122.288;2023-06-14T07:01:44;98681.41;;;13.47;100.00
29467;BME280;60968;37.490;-122.288;2023-06-14T07:04:45;98691.03;;;13.46;100.00
29467;BME280;60968;37.490;-122.288;2023-06-14T07:07:46;98706.47;;;13.54;100.00
29467;BME280;60968;37.490;-122.288;2023-06-14T07:10:48;98712.34;;;13.62;100.00
29467;BME280;60968;37.490;-122.288;2023-06-14T07:13:49;98707.66;;;13.72;100.00
29467;BME280;60968;37.490;-122.288;2023-06-14T07:16:50;98711.81;;;13.79;100.00
29467;BME280;60968;37.490;-122.288;2023-06-14T07:19:51;98708.13;;;13.85;100.00
29467;BME280;60968;37.490;-122.288;2023-06-14T07:22:54;98703.75;;;13.85;100.00
29467;BME280;60968;37.490;-122.288;2023-06-14T07:25:55;98700.53;;;13.77;100.00
29467;BME280;60968;37.490;-122.288;2023-06-14T07:28:56;98680.53;;;13.75;100.00
29467;BME280;60968;37.490;-122.288;2023-06-14T07:31:57;98675.50;;;13.68;100.00
29467;BME280;60968;37.490;-122.288;2023-06-14T07:34:58;98687.78;;;13.66;100.00
29467;BME280;60968;37.490;-122.288;2023-06-14T07:37:59;98706.06;;;13.68;100.00
29467;BME280;60968;37.490;-122.288;2023-06-14T07:41:00;98706.34;;;13.59;100.00
29467;BME280;60968;37.490;-122.288;2023-06-14T07:44:03;98695.78;;;13.62;100.00
29467;BME280;60968;37.490;-122.288;2023-06-14T07:47:04;98697.53;;;13.61;100.00
29467;BME280;60968;37.490;-122.288;2023-06-14T07:50:06;98691.88;;;13.47;100.00
29467;BME280;60968;37.490;-122.288;2023-06-14T07:53:07;98691.28;;;13.37;100.00
29467;BME280;60968;37.490;-122.288;2023-06-14T07:56:08;98688.03;;;13.29;100.00
29467;BME280;60968;37.490;-122.288;2023-06-14T07:59:11;98690.63;;;13.29;100.00
29467;BME280;60968;37.490;-122.288;2023-06-14T08:02:12;98682.78;;;13.29;100.00
29467;BME280;60968;37.490;-122.288;2023-06-14T08:05:18;98682.88;;;13.26;100.00
29467;BME280;60968;37.490;-122.288;2023-06-14T08:08:19;98671.00;;;13.15;100.00
29467;BME280;60968;37.490;-122.288;2023-06-14T08:11:22;98666.09;;;13.04;100.00
29467;BME280;60968;37.490;-122.288;2023-06-14T08:14:23;98657.28;;;13.07;100.00
29467;BME280;60968;37.490;-122.288;2023-06-14T08:17:24;98648.72;;;13.02;100.00
29467;BME280;60968;37.490;-122.288;2023-06-14T08:20:26;98643.44;;;13.03;100.00
29467;BME280;60968;37.490;-122.288;2023-06-14T08:23:27;98631.13;;;13.07;100.00
29467;BME280;60968;37.490;-122.288;2023-06-14T08:26:28;98623.19;;;13.10;100.00
29467;BME280;60968;37.490;-122.288;2023-06-14T08:29:29;98617.06;;;13.11;100.00
29467;BME280;60968;37.490;-122.288;2023-06-14T08:32:30;98613.44;;;13.15;100.00
29467;BME280;60968;37.490;-122.288;2023-06-14T08:35:31;98619.16;;;13.28;100.00
29467;BME280;60968;37.490;-122.288;2023-06-14T08:38:33;98629.38;;;13.37;100.00
29467;BME280;60968;37.490;-122.288;2023-06-14T08:41:36;98630.69;;;13.51;100.00
29467;BME280;60968;37.490;-122.288;2023-06-14T08:44:37;98652.44;;;13.53;100.00
29467;BME280;60968;37.490;-122.288;2023-06-14T08:47:40;98653.50;;;13.47;100.00
29467;BME280;60968;37.490;-122.288;2023-06-14T08:50:43;98649.94;;;13.48;100.00
29467;BME280;60968;37.490;-122.288;2023-06-14T08:53:48;98646.22;;;13.27;100.00
29467;BME280;60968;37.490;-122.288;2023-06-14T08:56:54;98636.56;;;13.01;100.00
29467;BME280;60968;37.490;-122.288;2023-06-14T08:59:55;98636.81;;;12.92;100.00
29467;BME280;60968;37.490;-122.288;2023-06-14T09:03:01;98637.97;;;12.51;100.00
29467;BME280;60968;37.490;-122.288;2023-06-14T09:06:02;98646.97;;;12.41;100.00
29467;BME280;60968;37.490;-122.288;2023-06-14T09:09:04;98649.66;;;12.38;100.00
29467;BME280;60968;37.490;-122.288;2023-06-14T09:12:07;98635.66;;;12.41;100.00
29467;BME280;60968;37.490;-122.288;2023-06-14T09:15:10;98627.59;;;12.48;100.00
29467;BME280;60968;37.490;-122.288;2023-06-14T09:18:12;98626.72;;;12.49;100.00
29467;BME280;60968;37.490;-122.288;2023-06-14T09:21:14;98628.50;;;12.47;100.00
29467;BME280;60968;37.490;-122.288;2023-06-14T09:24:15;98625.03;;;12.47;100.00
29467;BME280;60968;37.490;-122.288;2023-06-14T09:27:17;98618.13;;;12.44;100.00
29467;BME280;60968;37.490;-122.288;2023-06-14T09:30:20;98615.22;;;12.55;100.00
29467;BME280;60968;37.490;-122.288;2023-06-14T09:33:21;98623.75;;;12.62;100.00
29467;BME280;60968;37.490;-122.288;2023-06-14T09:36:24;98632.50;;;12.61;100.00
29467;BME280;60968;37.490;-122.288;2023-06-14T09:39:25;98627.25;;;12.61;100.00
29467;BME280;60968;37.490;-122.288;2023-06-14T09:42:26;98613.00;;;12.41;100.00
29467;BME280;60968;37.490;-122.288;2023-06-14T09:45:28;98620.28;;;12.30;100.00
29467;BME280;60968;37.490;-122.288;2023-06-14T09:48:29;98612.53;;;12.27;100.00
29467;BME280;60968;37.490;-122.288;2023-06-14T09:51:31;98605.50;;;12.29;100.00
29467;BME280;60968;37.490;-122.288;2023-06-14T09:54:40;98607.81;;;12.40;100.00
29467;BME280;60968;37.490;-122.288;2023-06-14T09:57:42;98596.53;;;12.39;100.00
29467;BME280;60968;37.490;-122.288;2023-06-14T10:00:47;98596.53;;;12.39;100.00
29467;BME280;60968;37.490;-122.288;2023-06-14T10:03:50;98600.63;;;12.48;100.00
29467;BME280;60968;37.490;-122.288;2023-06-14T10:06:53;98623.59;;;12.37;100.00
29467;BME280;60968;37.490;-122.288;2023-06-14T10:09:54;98622.38;;;12.17;100.00
29467;BME280;60968;37.490;-122.288;2023-06-14T10:12:55;98629.97;;;12.25;100.00
29467;BME280;60968;37.490;-122.288;2023-06-14T10:22:51;98637.47;;;12.06;100.00
29467;BME280;60968;37.490;-122.288;2023-06-14T10:25:59;98636.09;;;11.89;100.00
29467;BME280;60968;37.490;-122.288;2023-06-14T10:29:06;98624.00;;;11.87;100.00
29467;BME280;60968;37.490;-122.288;2023-06-14T10:32:07;98627.81;;;11.73;100.00
29467;BME280;60968;37.490;-122.288;2023-06-14T10:35:08;98648.91;;;11.64;100.00
29467;BME280;60968;37.490;-122.288;2023-06-14T10:38:11;98645.16;;;11.76;100.00
29467;BME280;60968;37.490;-122.288;2023-06-14T10:41:13;98639.72;;;11.83;100.00
29467;BME280;60968;37.490;-122.288;2023-06-14T10:50:28;98653.94;;;12.08;100.00
29467;BME280;60968;37.490;-122.288;2023-06-14T10:53:28;98645.31;;;12.06;100.00
29467;BME280;60968;37.490;-122.288;2023-06-14T10:56:30;98654.28;;;11.94;100.00
29467;BME280;60968;37.490;-122.288;2023-06-14T10:59:31;98649.78;;;12.00;100.00
29467;BME280;60968;37.490;-122.288;2023-06-14T11:06:15;98640.13;;;12.04;100.00
29467;BME280;60968;37.490;-122.288;2023-06-14T11:09:38;98646.97;;;12.08;100.00
29467;BME280;60968;37.490;-122.288;2023-06-14T11:12:48;98642.75;;;12.04;100.00
29467;BME280;60968;37.490;-122.288;2023-06-14T11:15:50;98621.84;;;12.04;100.00
29467;BME280;60968;37.490;-122.288;2023-06-14T11:18:51;98630.41;;;12.09;100.00
29467;BME280;60968;37.490;-122.288;2023-06-14T11:21:52;98623.22;;;12.17;100.00
29467;BME280;60968;37.490;-122.288;2023-06-14T11:24:53;98622.84;;;12.31;100.00
29467;BME280;60968;37.490;-122.288;2023-06-14T11:27:54;98620.88;;;12.40;100.00
29467;BME280;60968;37.490;-122.288;2023-06-14T11:31:01;98621.44;;;12.51;100.00
29467;BME280;60968;37.490;-122.288;2023-06-14T11:34:02;98611.81;;;12.51;100.00
29467;BME280;60968;37.490;-122.288;2023-06-14T11:37:04;98609.31;;;12.48;100.00
29467;BME280;60968;37.490;-122.288;2023-06-14T11:40:08;98596.34;;;12.45;100.00
29467;BME280;60968;37.490;-122.288;2023-06-14T11:43:09;98591.16;;;12.44;100.00
29467;BME280;60968;37.490;-122.288;2023-06-14T11:46:14;98585.00;;;12.46;100.00
29467;BME280;60968;37.490;-122.288;2023-06-14T11:49:14;98591.06;;;12.47;100.00
29467;BME280;60968;37.490;-122.288;2023-06-14T11:52:17;98588.16;;;12.58;100.00
29467;BME280;60968;37.490;-122.288;2023-06-14T11:55:18;98582.97;;;12.56;100.00
29467;BME280;60968;37.490;-122.288;2023-06-14T11:58:19;98579.28;;;12.63;100.00
29467;BME280;60968;37.490;-122.288;2023-06-14T12:01:20;98581.47;;;12.77;100.00
29467;BME280;60968;37.490;-122.288;2023-06-14T12:04:26;98575.31;;;12.80;100.00
29467;BME280;60968;37.490;-122.288;2023-06-14T12:07:27;98575.31;;;12.80;100.00
29467;BME280;60968;37.490;-122.288;2023-06-14T12:10:42;98566.44;;;12.85;100.00
29467;BME280;60968;37.490;-122.288;2023-06-14T12:13:43;98555.72;;;12.93;100.00
29467;BME280;60968;37.490;-122.288;2023-06-14T12:16:44;98563.66;;;12.90;100.00
29467;BME280;60968;37.490;-122.288;2023-06-14T12:19:46;98555.81;;;12.90;100.00
29467;BME280;60968;37.490;-122.288;2023-06-14T12:22:51;98573.88;;;12.98;100.00
29467;BME280;60968;37.490;-122.288;2023-06-14T12:25:52;98573.13;;;12.94;100.00
29467;BME280;60968;37.490;-122.288;2023-06-14T12:28:53;98580.72;;;13.02;100.00
29467;BME280;60968;37.490;-122.288;2023-06-14T12:31:53;98583.78;;;13.16;100.00
29467;BME280;60968;37.490;-122.288;2023-06-14T12:34:54;98584.41;;;13.23;100.00
29467;BME280;60968;37.490;-122.288;2023-06-14T12:37:56;98592.03;;;13.31;100.00
29467;BME280;60968;37.490;-122.288;2023-06-14T12:40:56;98591.94;;;13.34;100.00
29467;BME280;60968;37.490;-122.288;2023-06-14T12:43:57;98589.38;;;13.32;100.00
29467;BME280;60968;37.490;-122.288;2023-06-14T12:46:58;98598.06;;;13.33;100.00
29467;BME280;60968;37.490;-122.288;2023-06-14T12:49:59;98605.91;;;13.33;100.00
29467;BME280;60968;37.490;-122.288;2023-06-14T12:53:00;98596.09;;;13.41;100.00
29467;BME280;60968;37.490;-122.288;2023-06-14T12:56:01;98590.75;;;13.44;100.00
29467;BME280;60968;37.490;-122.288;2023-06-14T12:59:02;98583.28;;;13.32;100.00
29467;BME280;60968;37.490;-122.288;2023-06-14T13:02:19;98588.56;;;13.02;100.00
29467;BME280;60968;37.490;-122.288;2023-06-14T13:05:20;98593.16;;;12.95;100.00
29467;BME280;60968;37.490;-122.288;2023-06-14T13:08:21;98579.66;;;12.79;100.00
29467;BME280;60968;37.490;-122.288;2023-06-14T13:11:22;98576.41;;;12.71;100.00
29467;BME280;60968;37.490;-122.288;2023-06-14T13:14:24;98585.97;;;12.72;100.00
29467;BME280;60968;37.490;-122.288;2023-06-14T13:17:26;98586.31;;;12.90;100.00
29467;BME280;60968;37.490;-122.288;2023-06-14T13:20:27;98581.50;;;13.06;100.00
29467;BME280;60968;37.490;-122.288;2023-06-14T13:23:28;98585.47;;;13.17;100.00
29467;BME280;60968;37.490;-122.288;2023-06-14T13:26:29;98592.22;;;13.25;100.00
29467;BME280;60968;37.490;-122.288;2023-06-14T13:29:30;98603.56;;;13.25;100.00
29467;BME280;60968;37.490;-122.288;2023-06-14T13:32:31;98599.13;;;13.27;100.00
29467;BME280;60968;37.490;-122.288;2023-06-14T13:35:32;98608.47;;;13.36;100.00
29467;BME280;60968;37.490;-122.288;2023-06-14T13:38:33;98609.63;;;13.54;100.00
29467;BME280;60968;37.490;-122.288;2023-06-14T13:41:34;98611.31;;;13.57;100.00
29467;BME280;60968;37.490;-122.288;2023-06-14T13:44:35;98621.38;;;13.42;100.00
29467;BME280;60968;37.490;-122.288;2023-06-14T13:47:37;98615.69;;;13.56;100.00
29467;BME280;60968;37.490;-122.288;2023-06-14T13:50:38;98614.88;;;13.54;100.00
29467;BME280;60968;37.490;-122.288;2023-06-14T13:53:39;98604.41;;;13.54;100.00
29467;BME280;60968;37.490;-122.288;2023-06-14T13:56:41;98607.13;;;13.51;100.00
29467;BME280;60968;37.490;-122.288;2023-06-14T13:59:42;98605.41;;;13.50;100.00
29467;BME280;60968;37.490;-122.288;2023-06-14T14:02:43;98606.47;;;13.44;100.00
29467;BME280;60968;37.490;-122.288;2023-06-14T14:05:44;98600.94;;;13.53;100.00
29467;BME280;60968;37.490;-122.288;2023-06-14T14:08:46;98610.28;;;13.61;100.00
29467;BME280;60968;37.490;-122.288;2023-06-14T14:11:47;98590.31;;;13.58;100.00
29467;BME280;60968;37.490;-122.288;2023-06-14T14:14:48;98597.97;;;13.64;100.00
29467;BME280;60968;37.490;-122.288;2023-06-14T14:17:50;98599.72;;;13.64;100.00
29467;BME280;60968;37.490;-122.288;2023-06-14T14:20:51;98609.91;;;13.73;100.00
29467;BME280;60968;37.490;-122.288;2023-06-14T14:23:52;98613.00;;;13.84;100.00
29467;BME280;60968;37.490;-122.288;2023-06-14T14:26:54;98622.31;;;13.93;100.00
29467;BME280;60968;37.490;-122.288;2023-06-14T14:29:55;98627.03;;;14.09;100.00
29467;BME280;60968;37.490;-122.288;2023-06-14T14:32:56;98623.56;;;14.08;100.00
29467;BME280;60968;37.490;-122.288;2023-06-14T14:35:58;98613.91;;;14.34;100.00
29467;BME280;60968;37.490;-122.288;2023-06-14T14:38:59;98617.69;;;14.50;100.00
29467;BME280;60968;37.490;-122.288;2023-06-14T14:42:01;98626.84;;;14.38;100.00
29467;BME280;60968;37.490;-122.288;2023-06-14T14:45:02;98621.59;;;14.38;100.00
29467;BME280;60968;37.490;-122.288;2023-06-14T14:48:03;98617.34;;;14.59;100.00
29467;BME280;60968;37.490;-122.288;2023-06-14T14:51:04;98619.25;;;14.56;100.00
29467;BME280;60968;37.490;-122.288;2023-06-14T14:54:06;98621.59;;;14.64;100.00
29467;BME280;60968;37.490;-122.288;2023-06-14T14:57:07;98624.63;;;14.51;100.00
29467;BME280;60968;37.490;-122.288;2023-06-14T15:00:09;98621.53;;;14.40;100.00
29467;BME280;60968;37.490;-122.288;2023-06-14T15:03:10;98623.84;;;14.49;100.00
29467;BME280;60968;37.490;-122.288;2023-06-14T15:06:12;98620.56;;;14.68;100.00
29467;BME280;60968;37.490;-122.288;2023-06-14T15:09:13;98616.56;;;15.05;100.00
29467;BME280;60968;37.490;-122.288;2023-06-14T15:12:14;98616.16;;;15.38;100.00
29467;BME280;60968;37.490;-122.288;2023-06-14T15:15:15;98622.63;;;15.29;100.00
29467;BME280;60968;37.490;-122.288;2023-06-14T15:18:16;98619.41;;;15.87;100.00
29467;BME280;60968;37.490;-122.288;2023-06-14T15:21:18;98616.94;;;16.05;95.13
29467;BME280;60968;37.490;-122.288;2023-06-14T15:24:19;98613.22;;;16.50;96.34
29467;BME280;60968;37.490;-122.288;2023-06-14T15:27:20;98615.72;;;16.72;93.84
29467;BME280;60968;37.490;-122.288;2023-06-14T15:30:21;98618.22;;;16.75;93.10
29467;BME280;60968;37.490;-122.288;2023-06-14T15:33:22;98627.13;;;17.11;91.13
29467;BME280;60968;37.490;-122.288;2023-06-14T15:36:24;98610.44;;;18.36;83.82